EDWE 200020Z AUTO 30007KT 9999 // OVC012/// 13/11 Q1021 EDWE 192350Z AUTO 29009KT 9999 // OVC012/// 13/11 Q1021 EDWE 192320Z AUTO 30009KT 9999 // BKN013/// 13/11 Q1020 EDWE 192250Z AUTO 30009KT 270V330 9999 // OVC010/// 13/12 Q1020 EDWE 192220Z AUTO 27009KT 9999 // OVC010/// 14/12 Q1020 EDWE 192150Z AUTO 27011KT 9999 // OVC010/// 14/12 Q1020 EDWE 192120Z AUTO 27012KT 9999 // OVC011/// 14/13 Q1019 EDWE 192050Z AUTO 28012KT 7000 // FEW012/// BKN014/// 14/13 Q1019 EDWE 192020Z AUTO 27012KT 9000 // OVC010/// 16/14 Q1018 EDWE 191950Z AUTO 26011KT 9999 // BKN012/// BKN023/// 16/15 Q1018 EDWE 191920Z AUTO 29011KT 7000 // BKN010/// OVC059/// 17/16 Q1018 EDWE 191850Z AUTO 21004KT 9999 // FEW023/// SCT076/// 19/16 Q1017 EDWE 191820Z 22004KT 180V250 9999 SCT011 19/17 Q1017 EDWE 191750Z 21005KT 180V240 9999 SCT010 20/17 Q1017 EDWE 191650Z VRB02KT CAVOK 19/16 Q1016 EDWE 191620Z 35003KT 320V040 CAVOK 18/17 Q1016 EDWE 191550Z VRB02KT 9000 SCT007 17/17 Q1016 EDWE 191520Z 09011KT 6000 NSC 17/17 Q1015 REDZ EDWE 191450Z 29007KT 270V340 5000 -DZ OVC050 17/16 Q1018 TSRA EDWE 191420Z 29017KT 4800 TSRA FEW016 OVC044CB 18/16 Q1018 EDWE 191350Z 29010KT 9999 -DZ STC048 22/17 Q1017 EDWE 191320Z 17006KT 140V220 CAVOK 24/16 Q1016 EDWE 191250Z 16006KT 120V180 CAVOK 24/16 Q1016 EDWE 191220Z 14008KT 110V170 CAVOK 23/17 Q1016 EDWE 191150Z 11008KT 080V140 CAVOK 22/15 Q1016 EDWE 191120Z 12008KT 080V160 CAVOK 22/16 Q1016 EDWE 191050Z 10005KT 060V150 CAVOK 21/17 Q1017 EDWE 191020Z 06004KT 030V120 CAVOK 20/16 Q1018 EDWE 190420Z AUTO 10004KT 3500 // SCT230/// 14/13 Q1017 EDWE 190350Z AUTO 10006KT 3100 // NCD 13/13 Q1017 EDWE 190320Z AUTO 11003KT 3000 // NCD 13/12 Q1017 EDWE 190250Z AUTO 08004KT 1000 R25/1900U // NCD 13/13 Q1018 EDWE 190220Z AUTO VRB02KT 2100 // NCD 14/13 Q1018 EDWE 190150Z AUTO 10003KT 2500 // SCT083/// 14/13 Q1018 EDWE 190120Z AUTO 03003KT 0350 R25/0400N // SCT085/// 13/12 Q1018 EDWE 190050Z AUTO 04002KT 0350 R25/0400D // FEW079/// 13/12 Q1019 EDWE 190020Z AUTO 35002KT 2200 // BKN085/// 13/13 Q1019 EDWE 182350Z AUTO 34001KT 1600 // BKN087/// 13/13 Q1019 EDWE 182320Z AUTO VRB01KT 0600 R25/0550D // SCT086/// 13/12 Q1019 EDWE 182250Z AUTO VRB01KT 0300 R25/0350D // FEW087/// 13/12 Q1019 EDWE 182220Z AUTO 00000KT 2500 // NCD 14/13 Q1019 EDWE 182150Z AUTO 27003KT 4500 // NCD 14/13 Q1019 EDWE 182120Z AUTO 27004KT 3300 // NCD 14/13 Q1020 EDWE 182050Z AUTO 29002KT 5000 // NCD 15/13 Q1020 EDWE 182020Z AUTO 29002KT 6000 // NCD 15/13 Q1020 EDWE 181950Z AUTO 28005KT 7000 // ///////// 16/14 Q1020 EDWE 181920Z AUTO 30002KT 9000 // ///////// 17/14 Q1020 EDWE 181850Z AUTO 32003KT 9999 // ///////// 17/14 Q1020

METAR Messwerte "EMDEN-KOENIGSPO" EDWE

Zurück zur Übersicht

Ortsname
Ländercode / m ü. NN
Zeit Temperatur Taupunkt Rel.
Luftfeuchte
Luftdruck:
Altimeter
NN
Station
Wind in Beaufort
(Knoten)
Sichtweite
(Meter)
Wolken
(Meter über Grund)
Wettererscheinung
EMDEN-KOENIGSPO
DE 0
Fr 20.05. 02:20131188 %1021
1021
1021
WNW 3 (7)>= 10000Bedeckt (370) 
EMDEN-KOENIGSPO
DE 0
Fr 20.05. 01:50131188 %1021
1021
1021
WNW 3 (9)>= 10000Bedeckt (370) 
EMDEN-KOENIGSPO
DE 0
Fr 20.05. 01:20131188 %1020
1020
1020
WNW 3 (9)>= 10000Stark bewölkt (400) 
EMDEN-KOENIGSPO
DE 0
Fr 20.05. 00:50131294 %1020
1020
1020
WNW 3 (9)
W - NNW
>= 10000Bedeckt (300) 
EMDEN-KOENIGSPO
DE 0
Fr 20.05. 00:20141288 %1020
1020
1020
W 3 (9)>= 10000Bedeckt (300) 
EMDEN-KOENIGSPO
DE 0
Do 19.05. 23:50141288 %1020
1020
1020
W 4 (11)>= 10000Bedeckt (300) 
EMDEN-KOENIGSPO
DE 0
Do 19.05. 23:20141394 %1019
1019
1019
W 4 (12)>= 10000Bedeckt (340) 
EMDEN-KOENIGSPO
DE 0
Do 19.05. 22:50141394 %1019
1019
1019
W 4 (12)7000Stark bewölkt (430)
Leicht bewölkt (370)
 
EMDEN-KOENIGSPO
DE 0
Do 19.05. 22:20161488 %1018
1018
1018
W 4 (12)9000Bedeckt (300) 
EMDEN-KOENIGSPO
DE 0
Do 19.05. 21:50161594 %1018
1018
1018
W 4 (11)>= 10000Stark bewölkt (700)
Stark bewölkt (370)
 
EMDEN-KOENIGSPO
DE 0
Do 19.05. 21:20171694 %1018
1018
1018
WNW 4 (11)7000Bedeckt (1800)
Stark bewölkt (300)
 
EMDEN-KOENIGSPO
DE 0
Do 19.05. 20:50191683 %1017
1017
1017
SSW 2 (4)>= 10000Wolkig (2300)
Leicht bewölkt (700)
 
EMDEN-KOENIGSPO
DE 0
Do 19.05. 20:20191788 %1017
1017
1017
SW 2 (4)
S - WSW
>= 10000Wolkig (340) 
EMDEN-KOENIGSPO
DE 0
Do 19.05. 19:50201783 %1017
1017
1017
SSW 2 (5)
S - WSW
>= 10000Wolkig (300) 
EMDEN-KOENIGSPO
DE 0
Do 19.05. 18:50191683 %1016
1016
1016
Uml 1 (2)>= 10000Nicht signifikant 
EMDEN-KOENIGSPO
DE 0
Do 19.05. 18:20181794 %1016
1016
1016
N 2 (3)
NW - NO
>= 10000Nicht signifikant 
EMDEN-KOENIGSPO
DE 0
Do 19.05. 17:501717100 %1016
1016
1016
Uml 1 (2)9000Wolkig (210) 
EMDEN-KOENIGSPO
DE 0
Do 19.05. 17:201717100 %1015
1015
1015
O 4 (11)6000Nicht signifikant 
EMDEN-KOENIGSPO
DE 0
Do 19.05. 16:50171694 %1018
1018
1018
WNW 3 (7)
W - NNW
5000Bedeckt (1500)Nieselregen (schwach)
Gewitter mit Regen
EMDEN-KOENIGSPO
DE 0
Do 19.05. 16:20181688 %1018
1018
1018
WNW 5 (17)4800Bedeckt Cb (1300)
Leicht bewölkt (490)
Gewitter mit Regen
EMDEN-KOENIGSPO
DE 0
Do 19.05. 15:50221773 %1017
1017
1017
WNW 3 (10)>= 10000 Nieselregen (schwach)
EMDEN-KOENIGSPO
DE 0
Do 19.05. 15:20241661 %1016
1016
1016
S 2 (6)
SO - SW
>= 10000Nicht signifikant 
EMDEN-KOENIGSPO
DE 0
Do 19.05. 14:50241661 %1016
1016
1016
SSO 2 (6)
OSO - S
>= 10000Nicht signifikant 
EMDEN-KOENIGSPO
DE 0
Do 19.05. 14:20231769 %1016
1016
1016
SO 3 (8)
OSO - S
>= 10000Nicht signifikant 
EMDEN-KOENIGSPO
DE 0
Do 19.05. 13:50221565 %1016
1016
1016
OSO 3 (8)
O - SO
>= 10000Nicht signifikant 
EMDEN-KOENIGSPO
DE 0
Do 19.05. 13:20221669 %1016
1016
1016
OSO 3 (8)
O - SSO
>= 10000Nicht signifikant 
EMDEN-KOENIGSPO
DE 0
Do 19.05. 12:50211778 %1017
1017
1017
O 2 (5)
ONO - SSO
>= 10000Nicht signifikant 
EMDEN-KOENIGSPO
DE 0
Do 19.05. 12:20201678 %1018
1018
1018
ONO 2 (4)
NNO - OSO
>= 10000Nicht signifikant 
EMDEN-KOENIGSPO
DE 0
Do 19.05. 06:20141394 %1017
1017
1017
O 2 (4)3500Wolkig (7000) 
EMDEN-KOENIGSPO
DE 0
Do 19.05. 05:501313100 %1017
1017
1017
O 2 (6)3100  
EMDEN-KOENIGSPO
DE 0
Do 19.05. 05:20131294 %1017
1017
1017
OSO 2 (3)3000  
EMDEN-KOENIGSPO
DE 0
Do 19.05. 04:501313100 %1018
1018
1018
O 2 (4)1000  
EMDEN-KOENIGSPO
DE 0
Do 19.05. 04:20141394 %1018
1018
1018
Uml 1 (2)2100  
EMDEN-KOENIGSPO
DE 0
Do 19.05. 03:50141394 %1018
1018
1018
O 2 (3)2500Wolkig (2500) 
EMDEN-KOENIGSPO
DE 0
Do 19.05. 03:20131294 %1018
1018
1018
NNO 2 (3)350Wolkig (2600) 
EMDEN-KOENIGSPO
DE 0
Do 19.05. 02:50131294 %1019
1019
1019
NO 1 (2)350Leicht bewölkt (2400) 
EMDEN-KOENIGSPO
DE 0
Do 19.05. 02:201313100 %1019
1019
1019
N 1 (2)2200Stark bewölkt (2600) 
EMDEN-KOENIGSPO
DE 0
Do 19.05. 01:501313100 %1019
1019
1019
NNW 1 (1)1600Stark bewölkt (2700) 
EMDEN-KOENIGSPO
DE 0
Do 19.05. 01:20131294 %1019
1019
1019
Uml 1 (1)600Wolkig (2600) 
EMDEN-KOENIGSPO
DE 0
Do 19.05. 00:50131294 %1019
1019
1019
Uml 1 (1)300Leicht bewölkt (2700) 
EMDEN-KOENIGSPO
DE 0
Do 19.05. 00:20141394 %1019
1019
1019
Windstill2500  
EMDEN-KOENIGSPO
DE 0
Mi 18.05. 23:50141394 %1019
1019
1019
W 2 (3)4500  
EMDEN-KOENIGSPO
DE 0
Mi 18.05. 23:20141394 %1020
1020
1020
W 2 (4)3300  
EMDEN-KOENIGSPO
DE 0
Mi 18.05. 22:50151388 %1020
1020
1020
WNW 1 (2)5000  
EMDEN-KOENIGSPO
DE 0
Mi 18.05. 22:20151388 %1020
1020
1020
WNW 1 (2)6000  
EMDEN-KOENIGSPO
DE 0
Mi 18.05. 21:50161488 %1020
1020
1020
W 2 (5)7000  
EMDEN-KOENIGSPO
DE 0
Mi 18.05. 21:20171482 %1020
1020
1020
WNW 1 (2)9000  
EMDEN-KOENIGSPO
DE 0
Mi 18.05. 20:50171482 %1020
1020
1020
NW 2 (3)>= 10000  

Altimeter: Einstellung am Altimeter (Höhenmesser), die Höhe 0 muss auf diesen Luftdruckwert zeigen, damit das Gerät die Stationshöhe richtig anzeigt.

NN: Luftdruck reduziert auf "Normal Null", auf Meereshöhe, dieser von der Temperatur abhängige Wert wird bisweilen unkorrekt einfach als "Luftdruck" bezeichnet. Eigentlich nur eine fiktive Größe, die es erlaubt, Stationen auf unterschiedlichen Höhen miteinander zu vergleichen.

Station: Realer Luftdruck an der Station.